Time;durP1;ratioP1;P1;durP2;ratioP2;P2;SDS_P1;SDS_P2;PMS_P1;PMS_P2;Temp;Humidity;BMP_temperature;BMP_pressure;BME280_temperature;BME280_humidity;BME280_pressure;Samples;Min_cycle;Max_cycle;Signal;HPM_P1;HPM_P2
2022/01/17 00:00:18;;;;;;;22.43;16.90;;;8.10;57.60;;;;;;5048807;28;20595;-52
2022/01/17 00:02:46;;;;;;;19.87;15.37;;;7.90;59.30;;;;;;5047730;28;20447;-50
2022/01/17 00:05:12;;;;;;;21.87;14.80;;;8.10;59.40;;;;;;5046602;28;20200;-52
2022/01/17 00:07:38;;;;;;;19.03;14.67;;;8.30;58.50;;;;;;5047908;28;20443;-50
2022/01/17 00:10:05;;;;;;;21.70;14.60;;;8.50;57.90;;;;;;5051489;28;20279;-53
2022/01/17 00:12:35;;;;;;;17.97;14.10;;;8.70;57.60;;;;;;5045146;28;20561;-50
2022/01/17 00:15:01;;;;;;;18.80;14.10;;;8.80;57.20;;;;;;5051378;28;20453;-53
2022/01/17 00:17:37;;;;;;;23.50;15.00;;;8.90;56.90;;;;;;5044350;28;20439;-54
2022/01/17 00:20:11;;;;;;;21.10;14.17;;;8.90;56.90;;;;;;5050489;28;20229;-54
2022/01/17 00:22:40;;;;;;;21.60;14.93;;;9.00;56.70;;;;;;5047692;28;20438;-50
2022/01/17 00:25:07;;;;;;;19.50;13.57;;;9.10;56.60;;;;;;5041458;28;20491;-51
2022/01/17 00:27:34;;;;;;;18.07;13.20;;;9.10;56.50;;;;;;5041820;28;20450;-50
2022/01/17 00:30:02;;;;;;;20.70;13.33;;;9.10;56.30;;;;;;5047969;28;20448;-49
2022/01/17 00:32:28;;;;;;;17.50;13.53;;;9.20;56.20;;;;;;5046988;28;20480;-49
2022/01/17 00:34:54;;;;;;;19.00;12.50;;;9.20;56.00;;;;;;5041692;28;20448;-52
2022/01/17 00:37:19;;;;;;;17.00;12.90;;;9.20;55.90;;;;;;5048531;28;20192;-53
2022/01/17 00:39:45;;;;;;;16.53;12.73;;;9.20;55.80;;;;;;5048877;28;20196;-54
2022/01/17 00:42:11;;;;;;;16.20;12.70;;;9.30;55.90;;;;;;5068547;28;20201;-52
2022/01/17 00:44:36;;;;;;;18.23;12.67;;;9.30;55.80;;;;;;5046994;28;20232;-53
2022/01/17 00:47:02;;;;;;;16.30;11.97;;;9.30;55.80;;;;;;5041115;28;20671;-51
2022/01/17 00:49:27;;;;;;;15.30;12.20;;;9.30;55.70;;;;;;5049388;28;20193;-53
2022/01/17 00:51:53;;;;;;;17.40;11.80;;;9.30;55.70;;;;;;5047623;28;20234;-49
2022/01/17 00:54:19;;;;;;;14.40;11.47;;;9.30;55.60;;;;;;5050983;28;20207;-49
2022/01/17 00:56:45;;;;;;;14.33;10.60;;;9.30;55.60;;;;;;5052220;28;20535;-49
2022/01/17 00:59:10;;;;;;;16.20;12.20;;;9.30;55.70;;;;;;5056621;28;20202;-49
2022/01/17 01:01:36;;;;;;;17.30;12.00;;;9.30;55.80;;;;;;5044586;28;20286;-50
2022/01/17 01:04:02;;;;;;;17.00;12.07;;;9.30;55.60;;;;;;5051095;28;20262;-49
2022/01/17 01:06:27;;;;;;;15.27;11.57;;;9.30;55.70;;;;;;5049329;28;20652;-52
2022/01/17 01:08:53;;;;;;;18.53;12.57;;;9.30;55.70;;;;;;5047957;28;20192;-53
2022/01/17 01:11:18;;;;;;;17.27;12.10;;;9.30;55.70;;;;;;5047499;28;20201;-52
2022/01/17 01:13:44;;;;;;;17.80;12.97;;;9.30;56.00;;;;;;5046642;28;20302;-50
2022/01/17 01:16:23;;;;;;;13.40;11.90;;;9.10;56.40;;;;;;5046280;28;20275;-49
2022/01/17 01:29:15;;;;;;;16.83;12.40;;;9.10;57.10;;;;;;4993645;28;20448;-53
2022/01/17 01:31:49;;;;;;;19.53;14.40;;;9.00;57.20;;;;;;4995192;28;20438;-51
2022/01/17 01:34:16;;;;;;;17.93;13.40;;;8.90;57.40;;;;;;5000319;28;20249;-53
2022/01/17 01:36:42;;;;;;;19.63;13.57;;;8.90;57.30;;;;;;4991748;28;20818;-53
2022/01/17 01:39:09;;;;;;;22.87;14.13;;;9.00;57.20;;;;;;4993047;28;20441;-52
2022/01/17 01:41:40;;;;;;;24.87;14.67;;;8.90;57.20;;;;;;4992691;28;21431;-49
2022/01/17 01:44:12;;;;;;;19.13;13.60;;;8.90;57.20;;;;;;4991050;28;20493;-49
2022/01/17 01:46:37;;;;;;;21.03;14.37;;;9.10;57.00;;;;;;4993117;28;20492;-50
2022/01/17 01:49:03;;;;;;;15.40;9.77;;;9.00;56.70;;;;;;4991540;28;20432;-49
2022/01/17 01:51:28;;;;;;;21.10;11.57;;;9.00;59.10;;;;;;4998882;28;20190;-52
2022/01/17 01:53:54;;;;;;;19.03;14.30;;;9.50;65.70;;;;;;5002963;28;20281;-52
2022/01/17 01:56:19;;;;;;;20.43;14.17;;;10.20;57.90;;;;;;4990145;28;20206;-52
2022/01/17 01:58:45;;;;;;;20.80;14.37;;;10.30;53.80;;;;;;4991238;28;20209;-49
2022/01/17 02:01:10;;;;;;;23.80;15.60;;;10.30;53.00;;;;;;4997536;28;20237;-49
2022/01/17 02:03:36;;;;;;;19.90;14.00;;;10.30;52.80;;;;;;4987806;28;20228;-49
2022/01/17 02:06:02;;;;;;;20.87;14.70;;;10.00;52.80;;;;;;4995130;28;20249;-52
2022/01/17 02:08:30;;;;;;;20.53;14.60;;;9.90;54.00;;;;;;4989307;28;20195;-51
2022/01/17 02:10:55;;;;;;;20.27;14.70;;;9.90;54.00;;;;;;4989826;28;20203;-54
2022/01/17 02:13:21;;;;;;;20.40;14.40;;;9.90;54.00;;;;;;4987946;28;20445;-53
2022/01/17 02:15:47;;;;;;;22.80;15.80;;;9.90;54.10;;;;;;5000682;28;20253;-51
2022/01/17 02:18:19;;;;;;;19.00;13.37;;;9.90;54.20;;;;;;4999191;28;20190;-52
2022/01/17 02:20:59;;;;;;;18.87;15.40;;;9.90;54.10;;;;;;5040673;28;20482;-52
2022/01/17 02:23:24;;;;;;;21.47;15.70;;;9.90;54.10;;;;;;5050333;28;20546;-52
2022/01/17 02:25:50;;;;;;;19.57;15.23;;;9.90;54.10;;;;;;5047257;28;20941;-51
2022/01/17 02:28:16;;;;;;;20.37;14.60;;;9.90;54.20;;;;;;5053790;28;20723;-53
2022/01/17 02:30:41;;;;;;;21.93;15.03;;;9.80;54.20;;;;;;5041862;28;20193;-52
2022/01/17 02:33:07;;;;;;;19.80;14.47;;;9.80;54.40;;;;;;5049379;28;20283;-52
2022/01/17 02:35:32;;;;;;;20.93;14.90;;;9.80;54.60;;;;;;5047327;28;20908;-50
2022/01/17 02:37:58;;;;;;;22.10;15.27;;;9.70;54.80;;;;;;5045798;28;20197;-53
2022/01/17 02:40:24;;;;;;;20.90;15.67;;;9.70;55.00;;;;;;5051064;28;20217;-52
2022/01/17 02:43:06;;;;;;;22.13;16.60;;;9.70;55.30;;;;;;5048373;28;20637;-51
2022/01/17 02:48:20;;;;;;;25.53;17.63;;;9.70;55.60;;;;;;5021170;28;20443;-51
2022/01/17 02:50:47;;;;;;;23.43;16.97;;;9.70;55.60;;;;;;5048809;28;20452;-53
2022/01/17 02:53:12;;;;;;;23.10;16.80;;;9.60;55.60;;;;;;5053632;28;21115;-49
2022/01/17 02:55:46;;;;;;;20.23;15.50;;;9.60;55.60;;;;;;5057443;28;20441;-53
2022/01/17 02:58:12;;;;;;;20.10;14.70;;;9.60;55.60;;;;;;5050501;28;20743;-49
2022/01/17 03:00:38;;;;;;;21.23;16.00;;;9.60;55.60;;;;;;5050034;28;21636;-50
2022/01/17 03:03:04;;;;;;;22.70;15.93;;;9.60;55.70;;;;;;5057359;28;20474;-49
2022/01/17 03:05:30;;;;;;;23.40;14.37;;;9.60;55.60;;;;;;5053557;28;20224;-49
2022/01/17 03:07:55;;;;;;;22.47;16.37;;;9.60;55.70;;;;;;5042989;28;20492;-49
2022/01/17 03:12:49;;;;;;;24.47;15.40;;;9.60;55.70;;;;;;5048474;28;20224;-49
2022/01/17 03:15:15;;;;;;;20.97;15.93;;;9.50;55.80;;;;;;5042515;28;21167;-52
2022/01/17 03:17:41;;;;;;;19.53;13.87;;;9.50;55.90;;;;;;5046195;28;20189;-53
2022/01/17 03:20:07;;;;;;;24.43;16.23;;;9.60;56.10;;;;;;5040454;28;20229;-53
2022/01/17 03:22:33;;;;;;;19.73;14.70;;;9.60;56.00;;;;;;5046248;28;20193;-53
2022/01/17 03:24:58;;;;;;;21.30;15.00;;;9.50;56.00;;;;;;5051710;28;20496;-54
2022/01/17 03:27:24;;;;;;;22.30;15.90;;;9.60;55.90;;;;;;5050422;28;20192;-53
2022/01/17 03:29:50;;;;;;;21.57;16.20;;;9.60;55.80;;;;;;5052741;28;20193;-54
2022/01/17 03:32:15;;;;;;;24.60;16.70;;;9.60;55.70;;;;;;5045070;28;20228;-52
2022/01/17 03:34:42;;;;;;;20.63;16.67;;;9.50;55.50;;;;;;5048235;28;20250;-52
2022/01/17 03:37:08;;;;;;;23.13;15.83;;;9.50;55.70;;;;;;5041524;28;20197;-53
2022/01/17 03:39:33;;;;;;;25.30;17.30;;;9.50;55.70;;;;;;5050359;28;20442;-53
2022/01/17 03:41:59;;;;;;;23.00;16.27;;;9.50;55.70;;;;;;5054417;28;20184;-53
2022/01/17 03:44:24;;;;;;;22.73;16.30;;;9.50;55.70;;;;;;5055320;28;20224;-50
2022/01/17 03:46:50;;;;;;;23.17;17.70;;;9.50;55.70;;;;;;5057870;28;20213;-53
2022/01/17 03:49:16;;;;;;;20.30;15.60;;;9.50;56.00;;;;;;5051051;28;20270;-53
2022/01/17 03:51:41;;;;;;;20.80;15.47;;;9.50;56.10;;;;;;5053057;28;20224;-52
2022/01/17 03:54:07;;;;;;;21.20;16.03;;;9.50;56.10;;;;;;5052485;28;20192;-53
2022/01/17 03:56:32;;;;;;;24.80;16.27;;;9.50;56.10;;;;;;5043414;28;20209;-53
2022/01/17 03:58:58;;;;;;;24.87;17.30;;;9.50;56.10;;;;;;5057460;28;20207;-51
2022/01/17 04:01:24;;;;;;;23.77;16.80;;;9.50;56.20;;;;;;5047944;28;20196;-52
2022/01/17 04:03:49;;;;;;;21.10;15.57;;;9.50;56.10;;;;;;5042963;28;20224;-52
2022/01/17 04:06:15;;;;;;;22.40;16.00;;;9.50;56.20;;;;;;5045949;28;20205;-53
2022/01/17 04:08:41;;;;;;;22.13;15.00;;;9.50;56.10;;;;;;5039588;28;20201;-53
2022/01/17 04:11:07;;;;;;;24.60;16.43;;;9.40;56.00;;;;;;5037072;28;20506;-52
2022/01/17 04:13:34;;;;;;;29.50;16.07;;;9.40;56.40;;;;;;5041372;28;20556;-53
2022/01/17 04:16:00;;;;;;;25.27;15.53;;;9.40;56.30;;;;;;5049704;28;20458;-52
2022/01/17 04:18:25;;;;;;;24.90;16.17;;;9.40;56.10;;;;;;5050026;28;20812;-51
2022/01/17 04:20:52;;;;;;;22.57;15.93;;;9.50;56.10;;;;;;5040356;28;20599;-52
2022/01/17 04:23:19;;;;;;;22.30;15.60;;;9.50;56.00;;;;;;5036126;28;20646;-53
2022/01/17 04:25:45;;;;;;;23.27;15.23;;;9.50;55.90;;;;;;5047590;28;20795;-52
2022/01/17 04:28:12;;;;;;;26.10;16.57;;;9.40;56.00;;;;;;5044462;28;20463;-51
2022/01/17 04:30:39;;;;;;;23.77;16.07;;;9.40;56.10;;;;;;5048591;28;20431;-50
2022/01/17 04:33:06;;;;;;;21.27;16.70;;;9.40;56.10;;;;;;5038941;28;20436;-53
2022/01/17 04:35:33;;;;;;;24.07;16.37;;;9.50;56.00;;;;;;5048227;28;20431;-52
2022/01/17 04:38:01;;;;;;;22.00;16.00;;;9.50;56.00;;;;;;5046351;28;20489;-52
2022/01/17 04:40:34;;;;;;;25.83;17.20;;;9.40;55.90;;;;;;5041606;28;20530;-53
2022/01/17 04:43:02;;;;;;;23.80;16.70;;;9.50;55.90;;;;;;5034843;28;20435;-52
2022/01/17 04:45:28;;;;;;;23.33;15.93;;;9.50;56.00;;;;;;5043576;28;20962;-53
2022/01/17 04:47:53;;;;;;;21.73;15.50;;;9.50;56.10;;;;;;5037563;28;20435;-53
2022/01/17 04:50:22;;;;;;;26.40;18.10;;;9.50;56.10;;;;;;5044896;28;20655;-53
2022/01/17 04:52:49;;;;;;;22.37;15.30;;;9.50;56.10;;;;;;5035981;28;20600;-52
2022/01/17 04:55:16;;;;;;;24.10;16.93;;;9.50;56.20;;;;;;5039529;28;20475;-53
2022/01/17 04:57:43;;;;;;;24.40;17.50;;;9.50;56.10;;;;;;5047083;28;20790;-52
2022/01/17 05:00:11;;;;;;;23.87;16.93;;;9.50;56.20;;;;;;5043782;28;20435;-51
2022/01/17 05:02:37;;;;;;;22.57;16.20;;;9.50;56.20;;;;;;5046676;28;20518;-52
2022/01/17 05:05:04;;;;;;;21.73;16.33;;;9.50;56.40;;;;;;5051478;28;20793;-53
2022/01/17 05:07:33;;;;;;;25.47;20.07;;;9.50;56.50;;;;;;5045084;28;20443;-53
2022/01/17 05:10:00;;;;;;;25.10;19.60;;;9.50;56.70;;;;;;5040636;28;20480;-54
2022/01/17 05:12:26;;;;;;;24.63;16.17;;;9.50;56.70;;;;;;5047142;28;20931;-50
2022/01/17 05:14:53;;;;;;;26.80;17.53;;;9.50;56.60;;;;;;5048147;28;20437;-52
2022/01/17 05:17:37;;;;;;;21.53;14.90;;;9.50;56.70;;;;;;5036257;28;20469;-52
2022/01/17 05:20:05;;;;;;;24.90;17.50;;;9.50;56.80;;;;;;5047161;28;20521;-51
2022/01/17 05:22:33;;;;;;;24.10;16.30;;;9.50;56.80;;;;;;5043540;28;21826;-53
2022/01/17 05:25:01;;;;;;;23.97;17.00;;;9.40;56.70;;;;;;5042118;28;20490;-54
2022/01/17 05:27:27;;;;;;;23.47;16.20;;;9.40;56.70;;;;;;5047117;28;20432;-52
2022/01/17 05:29:52;;;;;;;25.87;15.57;;;9.40;56.70;;;;;;5047965;28;20437;-49
2022/01/17 05:32:20;;;;;;;25.43;17.03;;;9.40;56.70;;;;;;5044397;28;20184;-49
2022/01/17 05:34:46;;;;;;;23.30;15.90;;;9.40;56.70;;;;;;5051324;28;20208;-53
2022/01/17 05:37:13;;;;;;;24.10;16.17;;;9.50;56.70;;;;;;5047796;28;20479;-51
2022/01/17 05:39:40;;;;;;;23.67;18.43;;;9.50;56.60;;;;;;5057345;28;20441;-53
2022/01/17 05:42:07;;;;;;;26.90;17.73;;;9.50;56.60;;;;;;5042941;28;20455;-52
2022/01/17 05:44:33;;;;;;;26.37;17.23;;;9.60;56.50;;;;;;5049400;28;21964;-53
2022/01/17 05:46:59;;;;;;;26.80;17.80;;;9.60;56.50;;;;;;5046891;28;20470;-49
2022/01/17 05:49:25;;;;;;;22.50;16.20;;;9.60;57.20;;;;;;5049803;28;20651;-52
2022/01/17 05:51:51;;;;;;;24.70;17.60;;;9.60;56.50;;;;;;5047903;28;20447;-50
2022/01/17 05:54:17;;;;;;;25.57;17.17;;;9.60;56.50;;;;;;5048657;28;20777;-53
2022/01/17 05:56:43;;;;;;;22.87;16.40;;;9.50;56.50;;;;;;5042581;28;20194;-53
2022/01/17 05:59:09;;;;;;;27.63;18.37;;;9.60;56.60;;;;;;5051730;28;20896;-53
2022/01/17 06:01:39;;;;;;;23.07;16.70;;;9.50;56.50;;;;;;5040505;28;20957;-52
2022/01/17 06:04:05;;;;;;;27.20;16.73;;;9.60;56.50;;;;;;5055370;28;20482;-52
2022/01/17 06:06:31;;;;;;;24.37;16.57;;;9.60;56.60;;;;;;5046518;28;20434;-52
2022/01/17 06:08:57;;;;;;;21.67;16.57;;;9.60;56.50;;;;;;5042375;28;20790;-51
2022/01/17 06:11:22;;;;;;;26.67;17.40;;;9.60;56.40;;;;;;5051396;28;20426;-50
2022/01/17 06:13:48;;;;;;;24.27;14.47;;;9.60;56.50;;;;;;5046921;28;20618;-51
2022/01/17 06:16:13;;;;;;;25.77;15.73;;;9.60;56.60;;;;;;5050070;28;20667;-51
2022/01/17 06:18:39;;;;;;;22.23;15.77;;;9.70;57.80;;;;;;5052974;28;20255;-49
2022/01/17 06:21:05;;;;;;;22.87;16.43;;;9.90;57.60;;;;;;5056405;28;20250;-50
2022/01/17 06:23:31;;;;;;;23.60;17.40;;;10.10;57.90;;;;;;5048000;28;20210;-49
2022/01/17 06:25:56;;;;;;;25.70;17.73;;;10.40;57.30;;;;;;5047799;28;20434;-52
2022/01/17 06:28:22;;;;;;;25.80;17.47;;;10.60;56.00;;;;;;5049773;28;20192;-49
2022/01/17 06:30:49;;;;;;;27.17;16.83;;;10.70;54.90;;;;;;5044618;28;20203;-49
2022/01/17 06:33:15;;;;;;;24.03;17.00;;;10.70;54.10;;;;;;5041156;28;20713;-49
2022/01/17 06:35:41;;;;;;;24.20;18.23;;;10.70;53.90;;;;;;5050266;28;20528;-51
2022/01/17 06:38:06;;;;;;;24.63;17.30;;;10.60;53.60;;;;;;5040886;28;21051;-50
2022/01/17 06:40:32;;;;;;;23.33;16.90;;;10.70;54.10;;;;;;5042852;28;20200;-49
2022/01/17 06:42:58;;;;;;;22.93;16.70;;;10.70;53.50;;;;;;5040026;28;20665;-50
2022/01/17 06:45:23;;;;;;;21.80;17.33;;;10.70;53.40;;;;;;5044251;28;20198;-49
2022/01/17 06:47:49;;;;;;;22.93;16.50;;;10.70;53.30;;;;;;5041401;28;20637;-49
2022/01/17 06:50:15;;;;;;;25.37;19.03;;;10.70;53.40;;;;;;5050089;28;20219;-49
2022/01/17 06:52:40;;;;;;;25.03;19.00;;;10.70;53.90;;;;;;5043898;28;20950;-49
2022/01/17 06:55:07;;;;;;;22.93;17.40;;;10.90;53.70;;;;;;5041697;28;20189;-50
2022/01/17 06:57:33;;;;;;;25.00;18.60;;;11.00;53.20;;;;;;5041784;28;20656;-50
2022/01/17 06:59:59;;;;;;;25.83;17.70;;;11.00;52.80;;;;;;5047507;28;20431;-49
2022/01/17 07:02:24;;;;;;;23.27;17.07;;;11.10;52.70;;;;;;5043965;28;20981;-49
2022/01/17 07:04:50;;;;;;;24.80;17.47;;;11.10;52.50;;;;;;5040740;28;20238;-49
2022/01/17 07:07:17;;;;;;;22.27;17.00;;;11.10;52.70;;;;;;5044766;28;20200;-49
2022/01/17 07:09:43;;;;;;;22.27;16.80;;;11.20;52.70;;;;;;5041522;28;20196;-50
2022/01/17 07:12:09;;;;;;;21.30;15.13;;;11.20;52.50;;;;;;5047399;28;20816;-49
2022/01/17 07:14:41;;;;;;;21.07;14.30;;;11.30;52.20;;;;;;5044842;28;20185;-49
2022/01/17 07:17:10;;;;;;;22.83;15.80;;;11.30;52.40;;;;;;5039031;28;20489;-49
2022/01/17 07:19:37;;;;;;;21.77;15.00;;;11.20;52.60;;;;;;5053552;28;20516;-48
2022/01/17 07:22:04;;;;;;;19.57;16.07;;;11.10;52.40;;;;;;5049227;28;20470;-49
2022/01/17 07:24:29;;;;;;;23.33;17.60;;;11.10;52.50;;;;;;5042067;28;20486;-52
2022/01/17 07:26:55;;;;;;;21.17;17.33;;;11.10;52.40;;;;;;5037840;28;20447;-49
2022/01/17 07:29:21;;;;;;;24.60;15.13;;;11.10;52.40;;;;;;5049961;28;20258;-50
2022/01/17 07:31:46;;;;;;;24.00;17.60;;;11.10;52.70;;;;;;5052274;28;20200;-50
2022/01/17 07:34:12;;;;;;;22.50;15.03;;;11.20;52.60;;;;;;5052012;28;20454;-51
2022/01/17 07:36:38;;;;;;;24.50;16.97;;;11.30;52.50;;;;;;5052673;28;20262;-49
2022/01/17 07:39:03;;;;;;;24.37;16.73;;;11.40;52.20;;;;;;5051574;28;21654;-49
2022/01/17 07:41:29;;;;;;;23.80;16.80;;;11.50;51.90;;;;;;5039761;28;20254;-51
2022/01/17 07:43:55;;;;;;;23.00;14.73;;;11.50;51.50;;;;;;5053234;28;20229;-51
2022/01/17 07:49:13;;;;;;;26.80;17.00;;;11.50;51.50;;;;;;5048580;28;20193;-52
2022/01/17 07:51:43;;;;;;;20.00;16.13;;;11.50;51.30;;;;;;5038275;28;20638;-49
2022/01/17 07:54:13;;;;;;;24.70;16.60;;;11.50;51.20;;;;;;5047141;28;20794;-50
2022/01/17 07:56:40;;;;;;;19.17;15.27;;;11.40;51.20;;;;;;5041878;28;20427;-49
2022/01/17 07:59:09;;;;;;;22.60;15.63;;;11.20;51.80;;;;;;5047205;28;20446;-52
2022/01/17 08:01:37;;;;;;;20.40;15.00;;;11.20;52.30;;;;;;5045684;28;20434;-53
2022/01/17 08:04:04;;;;;;;24.53;16.67;;;11.30;52.70;;;;;;5040642;28;20484;-50
2022/01/17 08:06:30;;;;;;;23.00;16.10;;;11.40;52.40;;;;;;5048988;28;20457;-52
2022/01/17 08:08:57;;;;;;;23.80;18.17;;;11.30;52.20;;;;;;5037449;28;20475;-50
2022/01/17 08:11:22;;;;;;;22.93;16.47;;;11.40;52.30;;;;;;5048853;28;20197;-53
2022/01/17 08:13:48;;;;;;;23.50;16.47;;;11.40;52.40;;;;;;5048080;28;20495;-51
2022/01/17 08:16:15;;;;;;;23.30;17.60;;;11.50;52.50;;;;;;5037437;28;20197;-52
2022/01/17 08:18:41;;;;;;;21.90;16.13;;;11.60;52.30;;;;;;5041255;28;20188;-48
2022/01/17 08:21:07;;;;;;;24.47;17.60;;;11.60;52.20;;;;;;5034535;28;20472;-48
2022/01/17 08:23:32;;;;;;;23.17;17.37;;;11.60;52.10;;;;;;5046234;28;20839;-48
2022/01/17 08:25:58;;;;;;;23.53;17.20;;;11.70;52.00;;;;;;5045916;28;20346;-50
2022/01/17 08:28:24;;;;;;;22.53;16.17;;;11.80;52.00;;;;;;5043661;28;20203;-50
2022/01/17 08:30:50;;;;;;;24.77;19.00;;;11.80;52.00;;;;;;5043480;28;20930;-51
2022/01/17 08:33:15;;;;;;;21.67;16.60;;;11.80;51.70;;;;;;5037868;28;20247;-51
2022/01/17 08:35:41;;;;;;;20.60;16.53;;;11.80;51.50;;;;;;5045354;28;20679;-50
2022/01/17 08:38:06;;;;;;;23.80;15.57;;;11.80;51.90;;;;;;5041508;28;21133;-49
2022/01/17 08:40:32;;;;;;;19.60;14.87;;;11.90;51.70;;;;;;5042009;28;20747;-49
2022/01/17 08:42:58;;;;;;;24.27;17.87;;;12.00;51.80;;;;;;5049227;28;20204;-53
2022/01/17 08:45:24;;;;;;;18.43;14.30;;;12.00;51.30;;;;;;5038582;28;20220;-51
2022/01/17 08:47:52;;;;;;;17.50;13.60;;;12.00;51.70;;;;;;5050648;28;20189;-51
2022/01/17 08:50:20;;;;;;;18.27;13.33;;;12.00;51.70;;;;;;5047827;28;20465;-49
2022/01/17 08:52:46;;;;;;;20.00;14.10;;;12.00;52.00;;;;;;5051279;28;20423;-51
2022/01/17 08:55:12;;;;;;;19.13;14.60;;;12.10;52.20;;;;;;5043162;28;20977;-49
2022/01/17 08:57:38;;;;;;;16.00;12.30;;;12.10;52.10;;;;;;5049092;28;20518;-49
2022/01/17 09:00:13;;;;;;;16.43;12.63;;;12.20;52.00;;;;;;5051215;28;21049;-53
2022/01/17 09:02:39;;;;;;;13.90;11.80;;;12.20;51.90;;;;;;5050808;28;20267;-50
2022/01/17 09:05:05;;;;;;;14.90;11.40;;;12.30;51.80;;;;;;5046483;28;20594;-50
2022/01/17 09:07:31;;;;;;;11.60;10.27;;;12.30;51.60;;;;;;5036152;28;20201;-51
2022/01/17 09:09:57;;;;;;;15.83;10.10;;;12.20;51.60;;;;;;5048092;28;20986;-50
2022/01/17 09:12:22;;;;;;;10.80;8.80;;;12.20;51.80;;;;;;5038325;28;20200;-53
2022/01/17 09:14:48;;;;;;;14.40;8.03;;;12.20;51.90;;;;;;5039091;28;20652;-50
2022/01/17 09:17:14;;;;;;;12.03;8.67;;;12.20;51.90;;;;;;5040137;28;20620;-53
2022/01/17 09:19:42;;;;;;;11.87;8.20;;;12.20;52.00;;;;;;5041896;28;20604;-52
2022/01/17 09:22:08;;;;;;;12.50;10.97;;;12.10;52.20;;;;;;5035566;28;20264;-52
2022/01/17 09:24:36;;;;;;;14.60;10.20;;;12.20;52.40;;;;;;5040309;28;20582;-49
2022/01/17 09:27:03;;;;;;;13.67;10.07;;;12.20;52.20;;;;;;5041991;28;20471;-49
2022/01/17 09:29:29;;;;;;;14.50;8.40;;;12.30;52.40;;;;;;5044096;28;20470;-48
2022/01/17 09:31:55;;;;;;;30.13;23.93;;;12.40;52.40;;;;;;5045837;28;20435;-49
2022/01/17 09:34:20;;;;;;;17.73;12.70;;;12.40;52.20;;;;;;5034705;28;20435;-48
2022/01/17 09:36:47;;;;;;;15.20;11.23;;;12.40;52.10;;;;;;5040901;28;20196;-50
2022/01/17 09:39:13;;;;;;;12.87;10.00;;;12.40;52.20;;;;;;5032826;28;20727;-49
2022/01/17 09:41:39;;;;;;;29.40;21.17;;;12.40;52.20;;;;;;5045454;28;20431;-49
2022/01/17 09:44:06;;;;;;;19.70;14.77;;;12.40;51.80;;;;;;5047581;28;20501;-53
2022/01/17 09:46:38;;;;;;;8.10;6.67;;;12.40;51.80;;;;;;5035585;28;20254;-52
2022/01/17 09:54:25;;;;;;;13.27;10.37;;;12.20;52.10;;;;;;5039695;28;20470;-52
2022/01/17 09:56:53;;;;;;;9.03;7.13;;;12.20;52.10;;;;;;5039498;28;20435;-52
2022/01/17 09:59:19;;;;;;;10.20;6.93;;;12.10;52.30;;;;;;5043172;28;20432;-50
2022/01/17 10:01:44;;;;;;;6.37;5.60;;;12.10;52.50;;;;;;5036140;28;20442;-52
2022/01/17 10:04:10;;;;;;;7.53;6.30;;;12.20;52.60;;;;;;5038202;28;20488;-52
2022/01/17 10:06:39;;;;;;;9.00;7.00;;;12.30;52.60;;;;;;5038668;28;20196;-52
2022/01/17 10:09:17;;;;;;;6.90;5.80;;;12.40;52.50;;;;;;5049212;28;20192;-52
2022/01/17 10:12:04;;;;;;;6.80;5.67;;;12.50;52.40;;;;;;5036391;28;20431;-52
2022/01/17 10:14:36;;;;;;;8.77;5.60;;;12.50;52.10;;;;;;5036823;28;20478;-54
2022/01/17 10:17:11;;;;;;;8.80;6.10;;;12.50;52.40;;;;;;5042031;28;20945;-53
2022/01/17 10:19:38;;;;;;;8.20;6.37;;;12.40;51.30;;;;;;5049583;28;20495;-52
2022/01/17 10:22:13;;;;;;;6.40;5.63;;;12.40;51.80;;;;;;5038199;28;20434;-52
2022/01/17 10:25:15;;;;;;;8.60;5.90;;;12.30;51.80;;;;;;5057744;28;20482;-48
2022/01/17 10:27:58;;;;;;;6.10;5.50;;;12.30;51.70;;;;;;5053090;28;20846;-51
2022/01/17 10:30:50;;;;;;;7.57;6.83;;;12.30;51.60;;;;;;5046974;28;20438;-53
2022/01/17 10:35:59;;;;;;;9.10;6.93;;;12.30;51.90;;;;;;5038096;28;20864;-49
2022/01/17 10:38:27;;;;;;;9.10;7.13;;;12.30;52.20;;;;;;5049934;28;20447;-48
2022/01/17 10:40:59;;;;;;;9.63;7.20;;;12.10;52.10;;;;;;5063730;28;20542;-50
2022/01/17 10:43:34;;;;;;;8.67;6.87;;;12.10;52.10;;;;;;5058084;28;20962;-49
2022/01/17 10:46:03;;;;;;;7.50;6.47;;;12.10;52.30;;;;;;5041814;28;20446;-49
2022/01/17 10:48:37;;;;;;;7.63;6.83;;;12.10;52.50;;;;;;5046673;28;20431;-52
2022/01/17 10:51:05;;;;;;;7.70;6.13;;;12.10;52.50;;;;;;5034841;28;20442;-50
2022/01/17 10:53:30;;;;;;;7.57;6.00;;;12.00;52.60;;;;;;5048296;28;20432;-49
2022/01/17 10:55:59;;;;;;;8.40;6.20;;;11.90;52.90;;;;;;5050224;28;20986;-50
2022/01/17 10:58:29;;;;;;;7.30;5.67;;;11.70;53.10;;;;;;5033716;28;20565;-48
2022/01/17 11:01:15;;;;;;;7.33;5.77;;;11.50;53.50;;;;;;5049072;28;20829;-50
2022/01/17 11:03:42;;;;;;;5.93;4.80;;;11.40;53.70;;;;;;5040650;28;20510;-50
2022/01/17 11:06:14;;;;;;;6.30;5.13;;;11.10;54.20;;;;;;5037263;28;20451;-51
2022/01/17 11:08:41;;;;;;;6.93;4.87;;;10.90;54.70;;;;;;5046412;28;20442;-51
2022/01/17 11:11:09;;;;;;;7.87;5.90;;;10.80;55.00;;;;;;5038336;28;20438;-49
2022/01/17 11:13:38;;;;;;;7.20;5.70;;;10.80;55.10;;;;;;5045990;28;20461;-49
2022/01/17 11:16:13;;;;;;;7.83;5.53;;;10.60;55.20;;;;;;5034138;28;20432;-49
2022/01/17 11:18:43;;;;;;;5.90;5.30;;;10.60;55.50;;;;;;5045058;28;20944;-49
2022/01/17 11:21:13;;;;;;;6.00;5.00;;;10.70;55.20;;;;;;5039660;28;20475;-51
2022/01/17 11:23:43;;;;;;;6.67;5.37;;;10.60;55.50;;;;;;5047972;28;21021;-53
2022/01/17 11:26:10;;;;;;;6.00;5.10;;;10.10;56.10;;;;;;5049798;28;20981;-48
2022/01/17 11:28:37;;;;;;;7.93;5.67;;;10.10;56.60;;;;;;5051386;28;20793;-49
2022/01/17 11:31:15;;;;;;;6.20;5.60;;;10.30;56.70;;;;;;5033437;28;20809;-49
2022/01/17 11:33:46;;;;;;;6.20;5.60;;;10.40;56.60;;;;;;5048031;28;20450;-51
2022/01/17 11:36:12;;;;;;;7.00;6.00;;;10.30;57.00;;;;;;5037267;28;20868;-50
2022/01/17 11:38:42;;;;;;;8.53;5.80;;;10.10;58.20;;;;;;5038429;28;20443;-52
2022/01/17 11:41:29;;;;;;;6.90;4.87;;;10.00;58.90;;;;;;5045004;28;20485;-48
2022/01/17 11:43:59;;;;;;;7.70;6.07;;;10.00;59.40;;;;;;5040104;28;20952;-51
2022/01/17 11:46:31;;;;;;;6.57;5.50;;;9.90;60.30;;;;;;5043785;28;20443;-48
2022/01/17 11:49:02;;;;;;;6.93;5.10;;;9.70;61.20;;;;;;5051307;28;20431;-48
2022/01/17 11:51:46;;;;;;;6.40;5.27;;;9.60;61.60;;;;;;5047423;28;20496;-49
2022/01/17 11:54:17;;;;;;;5.50;4.80;;;9.40;61.80;;;;;;5036087;28;20435;-49
2022/01/17 11:57:04;;;;;;;4.23;3.83;;;9.20;63.10;;;;;;5040117;28;20449;-48
2022/01/17 11:59:43;;;;;;;6.23;5.40;;;9.10;62.90;;;;;;5039944;28;20461;-52
2022/01/17 12:02:20;;;;;;;5.47;4.97;;;9.20;62.90;;;;;;5037081;28;20442;-53
2022/01/17 12:05:06;;;;;;;7.10;5.30;;;9.20;62.60;;;;;;5036024;28;20530;-50
2022/01/17 12:07:52;;;;;;;5.47;4.97;;;9.10;62.60;;;;;;5041360;28;20486;-49
2022/01/17 12:10:42;;;;;;;6.23;5.13;;;9.00;63.20;;;;;;5041223;28;20819;-51
2022/01/17 12:13:11;;;;;;;5.70;5.00;;;9.10;63.10;;;;;;5038388;28;20508;-52
2022/01/17 12:18:59;;;;;;;5.87;4.80;;;9.10;63.40;;;;;;5027803;28;20545;-50
2022/01/17 12:21:41;;;;;;;5.40;4.90;;;8.90;63.40;;;;;;5046561;28;20529;-51
2022/01/17 12:24:15;;;;;;;6.47;5.20;;;8.80;63.70;;;;;;5051870;28;20489;-51
2022/01/17 12:26:42;;;;;;;6.40;5.70;;;9.00;63.70;;;;;;5053900;28;20811;-51
2022/01/17 12:29:08;;;;;;;5.93;5.33;;;9.00;63.20;;;;;;5056252;28;20442;-52
2022/01/17 12:31:53;;;;;;;5.70;5.10;;;8.80;63.30;;;;;;5063950;28;20434;-53
2022/01/17 12:34:23;;;;;;;6.10;5.50;;;8.80;63.60;;;;;;5049842;28;20240;-49
2022/01/17 12:36:50;;;;;;;6.20;5.60;;;8.90;63.30;;;;;;5044418;28;20451;-53
2022/01/17 12:39:19;;;;;;;6.40;5.37;;;9.10;63.00;;;;;;5040615;28;21196;-53
2022/01/17 12:41:48;;;;;;;5.97;5.13;;;9.30;62.70;;;;;;5050864;28;20500;-53
2022/01/17 12:44:22;;;;;;;5.37;4.87;;;9.40;61.70;;;;;;5052219;28;20490;-53
2022/01/17 12:46:51;;;;;;;5.73;5.13;;;9.40;61.10;;;;;;5051447;28;20439;-52
2022/01/17 12:49:17;;;;;;;5.57;4.90;;;9.30;60.90;;;;;;5052308;28;20774;-53
2022/01/17 12:51:44;;;;;;;7.50;4.70;;;9.20;60.80;;;;;;5050800;28;20493;-53
2022/01/17 12:54:13;;;;;;;4.80;4.40;;;9.20;61.20;;;;;;5051836;28;20458;-52
2022/01/17 12:56:43;;;;;;;8.27;4.87;;;9.20;61.10;;;;;;5050956;28;21014;-53
2022/01/17 12:59:10;;;;;;;5.40;4.90;;;9.40;60.90;;;;;;5045929;28;20428;-53
2022/01/17 13:01:40;;;;;;;7.70;5.83;;;9.40;60.50;;;;;;5050370;28;20423;-52
2022/01/17 13:04:08;;;;;;;5.37;4.63;;;9.40;60.50;;;;;;5051114;28;20909;-53
2022/01/17 13:06:34;;;;;;;7.30;5.17;;;9.40;59.70;;;;;;5049319;28;20544;-53
2022/01/17 13:09:00;;;;;;;5.70;4.90;;;9.60;59.70;;;;;;5048556;28;20939;-51
2022/01/17 13:11:25;;;;;;;6.60;5.13;;;9.70;59.20;;;;;;5047020;28;20193;-52